Time;durP1;ratioP1;P1;durP2;ratioP2;P2;SDS_P1;SDS_P2;PMS_P1;PMS_P2;Temp;Humidity;BMP_temperature;BMP_pressure;BME280_temperature;BME280_humidity;BME280_pressure;Samples;Min_cycle;Max_cycle;Signal;HPM_P1;HPM_P2
2023/04/18 00:02:07;;;;;;;21.42;10.98;;;;;;;8.43;93.93;102532.28;4897014;29;20029;-76
2023/04/18 00:04:33;;;;;;;21.73;11.77;;;;;;;8.33;94.53;102513.66;4872345;29;20035;-76
2023/04/18 00:06:58;;;;;;;19.95;10.48;;;;;;;8.30;95.02;102527.22;4897068;29;20032;-76
2023/04/18 00:09:24;;;;;;;20.63;10.48;;;;;;;8.27;95.09;102522.19;4896916;29;20032;-76
2023/04/18 00:11:50;;;;;;;20.60;11.18;;;;;;;8.26;95.46;102525.00;4896998;29;20112;-76
2023/04/18 00:14:18;;;;;;;17.85;9.60;;;;;;;8.22;95.29;102521.75;4880366;29;20080;-76
2023/04/18 00:16:45;;;;;;;17.60;9.13;;;;;;;8.19;93.33;102519.41;4897117;29;20448;-76
2023/04/18 00:19:11;;;;;;;19.30;10.63;;;;;;;8.20;92.14;102514.91;4896853;29;20028;-76
2023/04/18 00:21:37;;;;;;;21.55;10.45;;;;;;;8.19;90.54;102518.56;4896558;29;20076;-76
2023/04/18 00:24:02;;;;;;;17.90;9.23;;;;;;;8.18;89.21;102519.56;4891790;29;20041;-76
2023/04/18 00:26:28;;;;;;;18.38;8.85;;;;;;;8.12;87.73;102516.47;4878881;29;20423;-76
2023/04/18 00:28:53;;;;;;;18.35;10.05;;;;;;;8.07;86.85;102521.38;4878690;29;20070;-76
2023/04/18 00:31:18;;;;;;;18.92;9.40;;;;;;;7.99;86.70;102509.72;4861446;29;20057;-76
2023/04/18 00:33:44;;;;;;;13.80;9.60;;;;;;;8.00;85.59;102514.09;4878624;29;20095;-76
2023/04/18 00:36:09;;;;;;;17.92;9.50;;;;;;;7.96;85.37;102517.97;4896371;29;20084;-76
2023/04/18 00:38:35;;;;;;;19.13;9.77;;;;;;;7.94;84.44;102523.44;4896427;29;20028;-76
2023/04/18 00:41:01;;;;;;;19.80;10.55;;;;;;;7.87;84.62;102511.69;4896420;29;20072;-76
2023/04/18 00:43:26;;;;;;;16.67;8.93;;;;;;;7.88;84.28;102522.16;4896361;29;20429;-76
2023/04/18 00:45:52;;;;;;;16.88;9.45;;;;;;;7.87;84.09;102511.69;4896330;29;20047;-76
2023/04/18 00:48:19;;;;;;;16.85;9.00;;;;;;;7.81;83.77;102515.75;4892417;29;20494;-76
2023/04/18 00:50:44;;;;;;;19.38;9.05;;;;;;;7.81;83.49;102509.59;4877432;29;20084;-76
2023/04/18 00:53:09;;;;;;;18.90;9.25;;;;;;;7.69;83.71;102504.38;4861543;29;20128;-76
2023/04/18 00:55:36;;;;;;;15.95;8.90;;;;;;;7.67;84.22;102510.81;4883774;29;20036;-76
2023/04/18 00:58:02;;;;;;;19.00;9.18;;;;;;;7.60;85.06;102520.31;4896244;29;20477;-76
2023/04/18 01:00:27;;;;;;;18.98;10.13;;;;;;;7.51;84.91;102508.66;4879068;29;20067;-76
2023/04/18 01:02:54;;;;;;;17.45;9.63;;;;;;;7.47;85.40;102516.06;4890217;29;20037;-76
2023/04/18 01:05:20;;;;;;;15.52;8.90;;;;;;;7.45;85.59;102518.03;4861524;29;20025;-76
2023/04/18 01:07:46;;;;;;;17.23;9.20;;;;;;;7.40;85.38;102517.56;4878182;29;20033;-76
2023/04/18 01:10:11;;;;;;;16.77;8.70;;;;;;;7.35;84.35;102514.50;4885585;29;20087;-76
2023/04/18 01:12:37;;;;;;;17.85;9.32;;;;;;;7.30;84.90;102500.78;4895827;29;20040;-76
2023/04/18 01:15:04;;;;;;;21.25;8.10;;;;;;;7.34;85.05;102525.25;4895514;29;20037;-76
2023/04/18 01:17:30;;;;;;;22.10;9.20;;;;;;;7.29;84.70;102517.69;4887414;29;20028;-76
2023/04/18 01:19:56;;;;;;;18.33;10.02;;;;;;;7.20;85.02;102503.41;4877824;29;20033;-76
2023/04/18 01:22:22;;;;;;;18.33;9.68;;;;;;;7.23;85.22;102520.84;4895457;29;20052;-76
2023/04/18 01:24:48;;;;;;;21.05;10.75;;;;;;;7.13;85.90;102506.75;4895546;29;20061;-76
2023/04/18 01:27:13;;;;;;;19.10;10.13;;;;;;;7.10;86.24;102517.59;4895585;29;20041;-76
2023/04/18 01:29:39;;;;;;;19.25;9.60;;;;;;;7.04;86.15;102513.66;4895524;29;20044;-76
2023/04/18 01:32:05;;;;;;;19.58;9.05;;;;;;;7.01;86.42;102509.44;4895397;29;20032;-76
2023/04/18 01:34:30;;;;;;;17.63;8.82;;;;;;;6.96;86.78;102506.34;4895332;29;20029;-76
2023/04/18 01:36:55;;;;;;;18.00;9.02;;;;;;;6.88;86.59;102495.56;4867813;29;20882;-76
2023/04/18 01:39:21;;;;;;;18.95;9.90;;;;;;;6.88;86.89;102500.03;4877378;29;20119;-76
2023/04/18 01:41:46;;;;;;;18.17;9.18;;;;;;;6.81;87.11;102499.72;4879876;29;20043;-76
2023/04/18 01:44:12;;;;;;;16.38;8.18;;;;;;;6.73;87.64;102489.78;4889182;29;20044;-76
2023/04/18 01:46:37;;;;;;;18.90;9.45;;;;;;;6.70;87.03;102494.50;4877565;29;20044;-76
2023/04/18 01:49:03;;;;;;;18.30;9.38;;;;;;;6.69;87.39;102503.44;4877466;29;20040;-76
2023/04/18 01:51:30;;;;;;;18.05;9.27;;;;;;;6.65;87.66;102500.19;4860633;29;20169;-75
2023/04/18 01:53:55;;;;;;;21.42;9.35;;;;;;;6.58;87.71;102488.44;4877175;29;20037;-75
2023/04/18 01:56:20;;;;;;;16.85;8.00;;;;;;;6.47;87.59;102484.03;4877056;29;20036;-75
2023/04/18 01:58:46;;;;;;;19.13;10.15;;;;;;;6.47;88.82;102499.09;4893361;29;20120;-76
2023/04/18 02:01:11;;;;;;;18.35;10.18;;;;;;;6.50;87.79;102502.34;4894908;29;20036;-75
2023/04/18 02:03:37;;;;;;;21.13;9.25;;;;;;;6.52;87.63;102500.41;4894864;29;20123;-75
2023/04/18 02:06:03;;;;;;;19.73;10.20;;;;;;;6.47;87.79;102504.38;4872201;29;20100;-75
2023/04/18 02:08:29;;;;;;;19.25;9.60;;;;;;;6.41;88.16;102497.78;4877032;29;20084;-75
2023/04/18 02:10:55;;;;;;;18.35;8.57;;;;;;;6.31;88.35;102492.44;4894787;29;20476;-75
2023/04/18 02:13:20;;;;;;;17.05;8.70;;;;;;;6.29;88.32;102486.41;4894824;29;20045;-75
2023/04/18 02:15:46;;;;;;;19.80;9.45;;;;;;;6.28;88.73;102499.78;4894468;29;20151;-75
2023/04/18 02:18:11;;;;;;;18.58;9.77;;;;;;;6.25;88.76;102498.22;4894745;29;20496;-75
2023/04/18 02:20:37;;;;;;;17.38;8.48;;;;;;;6.20;88.99;102481.88;4894684;29;20033;-75
2023/04/18 02:23:03;;;;;;;17.23;9.35;;;;;;;6.20;88.58;102484.53;4894466;29;20143;-75
2023/04/18 02:25:28;;;;;;;17.80;9.68;;;;;;;6.17;88.82;102486.59;4894774;29;20037;-75
2023/04/18 02:27:55;;;;;;;18.65;9.07;;;;;;;6.09;89.43;102474.00;4876569;29;20442;-75
2023/04/18 02:30:22;;;;;;;18.48;8.95;;;;;;;6.08;89.15;102481.09;4876699;29;20036;-75
2023/04/18 02:32:50;;;;;;;16.38;8.85;;;;;;;6.00;89.12;102475.59;4887652;29;20036;-75
2023/04/18 02:35:16;;;;;;;17.98;9.35;;;;;;;6.02;89.31;102480.75;4894330;29;20040;-75
2023/04/18 02:37:42;;;;;;;19.00;9.52;;;;;;;5.92;89.55;102472.69;4877580;29;20540;-75
2023/04/18 02:40:08;;;;;;;17.70;9.23;;;;;;;5.89;89.82;102478.22;4894480;29;20358;-75
2023/04/18 02:42:33;;;;;;;19.92;8.65;;;;;;;5.85;90.04;102464.41;4894315;29;20039;-75
2023/04/18 02:44:58;;;;;;;19.58;9.45;;;;;;;5.90;90.25;102477.28;4894180;29;20037;-75
2023/04/18 02:47:24;;;;;;;21.05;9.82;;;;;;;5.87;89.80;102483.69;4879596;29;20120;-75
2023/04/18 02:49:49;;;;;;;18.88;10.10;;;;;;;5.82;90.68;102485.03;4876457;29;20048;-75
2023/04/18 02:52:15;;;;;;;17.77;7.97;;;;;;;5.72;90.54;102464.56;4876120;29;20044;-75
2023/04/18 02:54:40;;;;;;;17.60;9.23;;;;;;;5.74;90.98;102484.78;4891659;29;20031;-75
2023/04/18 02:57:05;;;;;;;18.38;9.93;;;;;;;5.72;91.13;102485.75;4894224;29;20478;-75
2023/04/18 02:59:31;;;;;;;16.73;8.40;;;;;;;5.70;91.00;102487.69;4877532;29;20064;-75
2023/04/18 03:01:56;;;;;;;23.10;10.20;;;;;;;5.68;90.58;102475.53;4876212;29;20044;-75
2023/04/18 03:04:21;;;;;;;15.27;8.45;;;;;;;5.61;91.19;102474.38;4876310;29;20100;-75
2023/04/18 03:06:47;;;;;;;19.73;10.55;;;;;;;5.55;91.36;102478.31;4876258;29;20112;-75
2023/04/18 03:09:13;;;;;;;17.95;9.65;;;;;;;5.56;91.17;102471.25;4859632;29;20029;-75
2023/04/18 03:11:39;;;;;;;22.08;12.55;;;;;;;5.55;91.75;102478.31;4886405;29;20445;-75
2023/04/18 03:14:04;;;;;;;17.23;9.40;;;;;;;5.55;90.81;102473.03;4893968;29;20029;-75
2023/04/18 03:16:31;;;;;;;19.85;10.18;;;;;;;5.49;92.29;102486.75;4894038;29;20503;-75
2023/04/18 03:18:56;;;;;;;19.23;9.48;;;;;;;5.41;92.09;102474.16;4894009;29;20401;-75
2023/04/18 03:21:22;;;;;;;19.23;9.68;;;;;;;5.41;91.98;102479.44;4893560;29;20037;-75
2023/04/18 03:23:47;;;;;;;19.73;9.13;;;;;;;5.36;92.24;102483.41;4894051;29;20028;-75
2023/04/18 03:26:13;;;;;;;20.83;9.82;;;;;;;5.36;92.81;102481.59;4894007;29;20440;-72
2023/04/18 03:28:39;;;;;;;17.40;10.48;;;;;;;5.32;93.00;102482.84;4893834;29;20608;-72
2023/04/18 03:31:05;;;;;;;18.75;9.88;;;;;;;5.23;93.32;102480.91;4894037;29;20112;-72
2023/04/18 03:33:30;;;;;;;24.63;10.13;;;;;;;5.21;93.01;102474.88;4877251;29;20036;-72
2023/04/18 03:35:56;;;;;;;23.08;10.00;;;;;;;5.24;93.02;102486.09;4893839;29;20047;-72
2023/04/18 03:38:21;;;;;;;20.30;10.35;;;;;;;5.25;92.76;102485.09;4876010;29;20458;-72
2023/04/18 03:40:47;;;;;;;16.40;8.85;;;;;;;5.23;92.92;102480.91;4876084;29;20045;-72
2023/04/18 03:43:12;;;;;;;17.42;8.75;;;;;;;5.18;93.63;102489.19;4876014;29;20037;-72
2023/04/18 03:45:38;;;;;;;19.55;10.50;;;;;;;5.11;93.71;102474.78;4876222;29;20029;-72
2023/04/18 03:48:03;;;;;;;18.45;10.23;;;;;;;5.08;94.38;102479.47;4876428;29;20059;-72
2023/04/18 03:50:28;;;;;;;18.13;9.88;;;;;;;5.05;94.04;102483.19;4875884;29;20392;-72
2023/04/18 03:52:54;;;;;;;17.38;9.55;;;;;;;5.05;94.69;102497.25;4843924;29;20039;-72
2023/04/18 03:55:19;;;;;;;18.98;9.27;;;;;;;5.02;94.15;102496.66;4859054;29;20488;-72
2023/04/18 03:57:45;;;;;;;16.95;9.40;;;;;;;4.96;95.06;102497.13;4875836;29;20174;-72
2023/04/18 04:00:13;;;;;;;18.38;10.13;;;;;;;4.92;94.50;102482.47;4875726;29;20051;-72
2023/04/18 04:02:39;;;;;;;15.10;8.38;;;;;;;4.94;94.36;102488.47;4875813;29;20028;-72
2023/04/18 04:05:04;;;;;;;18.15;8.07;;;;;;;4.92;94.72;102487.75;4894835;29;20995;-72
2023/04/18 04:07:31;;;;;;;17.80;9.30;;;;;;;4.93;94.98;102489.44;4897125;29;20068;-72
2023/04/18 04:09:59;;;;;;;16.25;8.10;;;;;;;4.88;95.81;102487.16;4897479;29;20056;-72
2023/04/18 04:12:25;;;;;;;19.55;9.88;;;;;;;4.82;95.27;102483.19;4896991;29;20048;-72
2023/04/18 04:14:50;;;;;;;18.08;9.07;;;;;;;4.86;95.43;102485.59;4896781;29;20057;-72
2023/04/18 04:17:16;;;;;;;18.67;9.18;;;;;;;4.83;95.36;102495.44;4880168;29;20071;-72
2023/04/18 04:19:41;;;;;;;17.35;8.57;;;;;;;4.85;95.31;102487.41;4879867;29;20033;-72
2023/04/18 04:22:07;;;;;;;26.17;10.45;;;;;;;4.76;95.86;102485.44;4896650;29;20064;-72
2023/04/18 04:24:34;;;;;;;19.42;10.00;;;;;;;4.81;95.95;102491.22;4896685;29;20036;-72
2023/04/18 04:27:00;;;;;;;18.67;10.10;;;;;;;4.76;96.00;102494.22;4896815;29;20040;-72
2023/04/18 04:29:27;;;;;;;18.65;10.40;;;;;;;4.75;96.80;102489.06;4896704;29;20107;-72
2023/04/18 04:31:53;;;;;;;18.17;8.95;;;;;;;4.72;96.17;102487.50;4896573;29;20036;-72
2023/04/18 04:34:19;;;;;;;17.63;10.43;;;;;;;4.73;96.24;102488.34;4896383;29;20965;-72
2023/04/18 04:36:45;;;;;;;16.05;9.02;;;;;;;4.71;95.65;102492.88;4879958;29;20395;-72
2023/04/18 04:39:11;;;;;;;18.33;8.88;;;;;;;4.69;96.05;102493.03;4896500;29;20107;-72
2023/04/18 04:41:38;;;;;;;17.85;9.70;;;;;;;4.67;96.17;102494.09;4879344;29;20037;-72
2023/04/18 04:44:04;;;;;;;17.00;9.55;;;;;;;4.65;95.72;102493.38;4879430;29;20055;-72
2023/04/18 04:46:30;;;;;;;16.25;8.32;;;;;;;4.65;95.31;102503.94;4879360;29;20068;-72
2023/04/18 04:48:56;;;;;;;20.50;9.73;;;;;;;4.67;95.44;102494.94;4863861;29;20539;-72
2023/04/18 04:51:21;;;;;;;19.50;9.38;;;;;;;4.66;95.13;102501.16;4896355;29;20036;-72
2023/04/18 04:53:46;;;;;;;18.05;9.00;;;;;;;4.57;95.37;102491.31;4896153;29;20033;-72
2023/04/18 04:56:12;;;;;;;19.73;8.60;;;;;;;4.64;95.45;102510.16;4896242;29;20076;-72
2023/04/18 04:58:37;;;;;;;16.40;8.57;;;;;;;4.64;94.94;102508.38;4876804;29;20676;-72
2023/04/18 05:01:03;;;;;;;18.98;9.00;;;;;;;4.61;95.26;102517.41;4895630;29;20038;-72
2023/04/18 05:03:28;;;;;;;19.85;9.85;;;;;;;4.58;95.02;102500.91;4883531;29;20092;-73
2023/04/18 05:05:53;;;;;;;17.15;9.05;;;;;;;4.62;94.81;102502.38;4894382;29;20468;-74
2023/04/18 05:08:19;;;;;;;17.40;9.30;;;;;;;4.66;94.33;102500.31;4856192;29;20048;-77
2023/04/18 05:10:44;;;;;;;21.85;10.27;;;;;;;4.66;94.73;102508.25;4880971;29;20440;-72
2023/04/18 05:13:10;;;;;;;18.10;9.82;;;;;;;4.58;95.07;102499.13;4863795;29;21046;-73
2023/04/18 05:15:36;;;;;;;18.27;9.48;;;;;;;4.65;94.62;102509.22;4863099;29;20060;-76
2023/04/18 05:18:01;;;;;;;22.65;9.40;;;;;;;4.65;94.99;102514.50;4881364;29;20032;-76
2023/04/18 05:20:27;;;;;;;19.63;10.15;;;;;;;4.65;94.89;102523.28;4880549;29;20492;-75
2023/04/18 05:22:52;;;;;;;18.77;9.80;;;;;;;4.64;95.28;102504.88;4862649;29;20568;-75
2023/04/18 05:25:18;;;;;;;15.65;8.88;;;;;;;4.73;94.97;102520.88;4880741;29;20037;-73
2023/04/18 05:27:44;;;;;;;19.27;9.38;;;;;;;4.80;94.76;102522.09;4879987;29;20041;-73
2023/04/18 05:30:10;;;;;;;14.90;8.60;;;;;;;4.94;94.39;102525.50;4880628;29;20499;-73
2023/04/18 05:32:37;;;;;;;20.77;9.85;;;;;;;5.06;93.58;102516.63;4880259;29;20033;-73
2023/04/18 05:35:04;;;;;;;21.15;10.30;;;;;;;5.12;94.01;102531.16;4880988;29;20028;-77
2023/04/18 05:37:30;;;;;;;17.48;8.60;;;;;;;5.05;93.40;102517.56;4862760;29;20531;-73
2023/04/18 05:39:55;;;;;;;18.80;8.85;;;;;;;5.02;93.58;102520.44;4879721;29;20056;-74
2023/04/18 05:42:21;;;;;;;18.42;8.40;;;;;;;5.05;94.27;102526.34;4880027;29;20509;-74
2023/04/18 05:44:46;;;;;;;17.60;9.13;;;;;;;5.09;94.58;102532.25;4862876;29;20033;-73
2023/04/18 05:47:11;;;;;;;18.05;9.38;;;;;;;5.11;95.24;102535.63;4879769;29;20061;-73
2023/04/18 05:49:37;;;;;;;15.05;7.63;;;;;;;5.18;94.42;102541.25;4883700;29;20068;-74
2023/04/18 05:52:02;;;;;;;17.65;9.15;;;;;;;5.11;94.84;102524.16;4879744;29;20391;-75
2023/04/18 05:54:28;;;;;;;17.95;9.15;;;;;;;5.28;95.37;102542.22;4880110;29;20044;-75
2023/04/18 05:56:54;;;;;;;18.90;10.48;;;;;;;5.37;94.82;102540.66;4869753;29;20446;-74
2023/04/18 05:59:22;;;;;;;20.40;9.98;;;;;;;5.46;95.18;102543.41;4854914;29;20039;-71
2023/04/18 06:01:48;;;;;;;18.73;10.02;;;;;;;5.58;94.64;102533.69;4863848;29;20040;-76
2023/04/18 06:04:14;;;;;;;18.30;8.95;;;;;;;5.75;94.98;102536.78;4863559;29;20028;-71
2023/04/18 06:06:40;;;;;;;18.08;8.43;;;;;;;5.90;94.31;102538.19;4880104;29;20051;-71
2023/04/18 06:09:06;;;;;;;12.70;7.20;;;;;;;6.01;94.10;102543.47;4879183;29;20392;-71
2023/04/18 06:11:32;;;;;;;16.75;10.15;;;;;;;6.23;93.01;102545.19;4861733;29;20051;-71
2023/04/18 06:13:58;;;;;;;18.42;10.02;;;;;;;6.46;92.61;102542.47;4878921;29;20033;-71
2023/04/18 06:16:23;;;;;;;17.65;8.63;;;;;;;6.61;90.82;102543.84;4880305;29;20572;-71
2023/04/18 06:18:49;;;;;;;15.23;8.55;;;;;;;6.68;90.88;102550.31;4879279;29;20028;-71
2023/04/18 06:21:14;;;;;;;17.30;9.00;;;;;;;6.71;90.41;102555.34;4878726;29;20028;-71
2023/04/18 06:23:39;;;;;;;19.98;8.35;;;;;;;6.67;90.47;102556.56;4870337;29;20092;-71
2023/04/18 06:26:06;;;;;;;17.40;8.75;;;;;;;6.67;90.80;102553.09;4879269;29;20033;-71
2023/04/18 06:28:31;;;;;;;17.45;9.43;;;;;;;6.66;91.03;102554.06;4878747;29;20104;-71
2023/04/18 06:30:57;;;;;;;21.00;9.63;;;;;;;6.70;91.42;102558.13;4877920;29;20809;-71
2023/04/18 06:33:22;;;;;;;16.65;9.48;;;;;;;6.63;91.15;102554.28;4876483;29;20033;-71
2023/04/18 06:35:47;;;;;;;18.38;10.38;;;;;;;6.75;91.63;102561.22;4876519;29;20100;-71
2023/04/18 06:38:13;;;;;;;17.45;8.93;;;;;;;6.73;91.79;102547.25;4875035;29;20474;-71
2023/04/18 06:40:38;;;;;;;16.20;8.63;;;;;;;6.78;91.56;102566.28;4876492;29;20029;-71
2023/04/18 06:43:03;;;;;;;17.05;9.38;;;;;;;6.80;91.70;102559.03;4876304;29;20033;-71
2023/04/18 06:45:30;;;;;;;17.48;8.95;;;;;;;6.79;91.97;102567.97;4876311;29;20120;-71
2023/04/18 06:47:55;;;;;;;18.80;10.68;;;;;;;6.74;91.92;102564.88;4876477;29;20045;-71
2023/04/18 06:50:21;;;;;;;19.20;9.43;;;;;;;6.73;92.61;102558.72;4875156;29;20040;-71
2023/04/18 06:52:46;;;;;;;17.30;9.30;;;;;;;6.77;92.57;102568.09;4876124;29;20092;-71
2023/04/18 06:55:12;;;;;;;17.88;8.95;;;;;;;6.80;93.18;102559.03;4859295;29;20037;-72
2023/04/18 06:57:42;;;;;;;17.98;9.60;;;;;;;6.81;92.48;102571.31;4876347;29;20048;-71
2023/04/18 07:00:09;;;;;;;21.17;8.82;;;;;;;6.80;92.54;102565.19;4859293;29;20029;-71
2023/04/18 07:02:37;;;;;;;15.43;8.23;;;;;;;6.85;93.06;102575.41;4876182;29;20033;-71
2023/04/18 07:05:03;;;;;;;16.25;8.73;;;;;;;6.84;93.60;102570.22;4876166;29;20497;-71
2023/04/18 07:07:28;;;;;;;15.48;8.40;;;;;;;6.85;93.08;102583.34;4893199;29;20037;-71
2023/04/18 07:09:53;;;;;;;20.10;11.05;;;;;;;6.88;93.76;102582.25;4876822;29;20036;-72
2023/04/18 07:12:20;;;;;;;19.05;8.93;;;;;;;6.91;92.89;102577.53;4877129;29;20115;-71
2023/04/18 07:14:45;;;;;;;19.30;8.73;;;;;;;6.87;93.50;102560.22;4893286;29;20040;-72
2023/04/18 07:17:11;;;;;;;18.67;10.65;;;;;;;6.93;93.61;102580.91;4894003;29;20088;-72
2023/04/18 07:19:36;;;;;;;16.65;8.90;;;;;;;6.91;93.96;102582.81;4894014;29;20180;-71
2023/04/18 07:22:01;;;;;;;20.55;9.13;;;;;;;6.93;93.83;102588.00;4893785;29;20151;-71
2023/04/18 07:24:27;;;;;;;16.00;8.68;;;;;;;6.87;93.81;102576.13;4894057;29;20057;-71
2023/04/18 07:26:53;;;;;;;17.38;9.07;;;;;;;6.97;93.51;102587.63;4893547;29;20067;-72
2023/04/18 07:29:18;;;;;;;16.77;8.48;;;;;;;7.02;93.85;102590.75;4893095;29;20389;-72
2023/04/18 07:31:47;;;;;;;15.35;8.00;;;;;;;7.05;94.09;102578.16;4876660;29;20043;-72
2023/04/18 07:34:13;;;;;;;15.90;8.20;;;;;;;7.10;93.94;102586.56;4893816;29;20033;-71
2023/04/18 07:36:39;;;;;;;14.75;7.85;;;;;;;7.14;93.67;102583.53;4893814;29;20036;-71
2023/04/18 07:39:04;;;;;;;18.10;7.45;;;;;;;7.13;93.87;102584.50;4894858;29;20044;-72
2023/04/18 07:41:30;;;;;;;18.92;8.73;;;;;;;7.21;93.77;102582.03;4892471;29;20040;-71
2023/04/18 07:43:55;;;;;;;15.60;7.28;;;;;;;7.35;93.98;102591.47;4878236;29;20040;-71
2023/04/18 07:46:20;;;;;;;17.10;9.10;;;;;;;7.51;93.61;102587.47;4879215;29;20033;-70
2023/04/18 07:48:46;;;;;;;15.85;8.15;;;;;;;7.64;93.23;102591.56;4879337;29;20052;-71
2023/04/18 07:51:11;;;;;;;14.90;7.45;;;;;;;7.71;92.39;102583.94;4878759;29;20033;-70
2023/04/18 07:53:37;;;;;;;17.73;7.97;;;;;;;7.88;92.17;102599.19;4896016;29;20040;-71
2023/04/18 07:56:02;;;;;;;13.52;7.07;;;;;;;7.97;91.83;102596.72;4896185;29;20091;-71
2023/04/18 07:58:28;;;;;;;15.07;7.85;;;;;;;8.05;91.08;102583.59;4896158;29;20040;-71
2023/04/18 08:00:53;;;;;;;15.40;6.85;;;;;;;8.23;89.93;102599.72;4879543;29;20028;-71
2023/04/18 08:03:18;;;;;;;14.95;6.00;;;;;;;8.38;90.01;102592.16;4878308;29;20041;-71
2023/04/18 08:05:44;;;;;;;15.30;7.38;;;;;;;8.47;88.63;102594.03;4878327;29;20029;-71
2023/04/18 08:08:10;;;;;;;16.05;7.28;;;;;;;8.51;89.21;102596.28;4895548;29;20033;-71
2023/04/18 08:10:36;;;;;;;17.33;9.07;;;;;;;8.55;88.26;102599.47;4896051;29;20043;-71
2023/04/18 08:13:02;;;;;;;13.63;6.45;;;;;;;8.48;88.93;102612.47;4895265;29;20036;-71
2023/04/18 08:15:31;;;;;;;13.88;6.50;;;;;;;8.52;89.65;102591.78;4895898;29;20047;-71
2023/04/18 08:17:56;;;;;;;16.27;7.35;;;;;;;8.61;89.16;102604.22;4896840;29;20036;-71
2023/04/18 08:20:22;;;;;;;16.48;7.47;;;;;;;8.56;89.01;102594.00;4896708;29;20372;-76
2023/04/18 08:22:47;;;;;;;16.25;7.85;;;;;;;8.55;88.92;102591.50;4896580;29;20068;-71
2023/04/18 08:25:12;;;;;;;12.27;6.47;;;;;;;8.53;89.22;102596.94;4896477;29;20051;-71
2023/04/18 08:27:38;;;;;;;14.02;7.80;;;;;;;8.55;88.98;102602.13;4879841;29;20123;-71
2023/04/18 08:30:04;;;;;;;15.25;6.60;;;;;;;8.51;88.83;102601.59;4896552;29;20919;-71
2023/04/18 08:32:32;;;;;;;12.30;7.15;;;;;;;8.60;88.31;102591.91;4896580;29;20040;-71
2023/04/18 08:34:58;;;;;;;13.45;7.13;;;;;;;8.71;88.03;102601.56;4879579;29;20044;-71
2023/04/18 08:37:23;;;;;;;13.70;6.53;;;;;;;8.95;87.66;102596.63;4896593;29;20036;-71
2023/04/18 08:39:49;;;;;;;14.88;6.60;;;;;;;9.17;85.84;102595.47;4896146;29;20054;-71
2023/04/18 08:42:18;;;;;;;13.52;7.18;;;;;;;9.55;84.26;102604.31;4879502;29;20047;-70
2023/04/18 08:44:46;;;;;;;15.82;7.53;;;;;;;9.85;84.08;102583.66;4896408;29;20062;-71
2023/04/18 08:47:11;;;;;;;12.65;6.60;;;;;;;9.98;82.87;102586.84;4896364;29;20111;-71
2023/04/18 08:49:37;;;;;;;14.65;7.15;;;;;;;9.92;81.42;102594.59;4896400;29;20065;-71
2023/04/18 08:52:08;;;;;;;15.38;7.15;;;;;;;9.97;82.35;102593.16;4895392;29;20056;-71
2023/04/18 08:54:36;;;;;;;14.77;6.78;;;;;;;10.08;81.01;102600.09;4895973;29;20123;-71
2023/04/18 08:57:03;;;;;;;13.35;7.13;;;;;;;10.28;80.42;102583.00;4896150;29;20400;-71
2023/04/18 08:59:29;;;;;;;13.77;6.38;;;;;;;10.47;79.41;102592.69;4895507;29;20039;-71
2023/04/18 09:01:57;;;;;;;14.07;6.68;;;;;;;10.40;79.73;102588.97;4895768;29;20036;-71
2023/04/18 09:04:39;;;;;;;12.52;6.47;;;;;;;10.30;79.31;102585.53;4878986;29;20393;-70
2023/04/18 09:07:09;;;;;;;13.85;6.45;;;;;;;10.27;78.70;102597.34;4895865;29;20043;-71
2023/04/18 09:09:45;;;;;;;12.20;5.82;;;;;;;10.21;78.35;102584.56;4895194;29;20028;-71
2023/04/18 09:12:13;;;;;;;12.77;7.10;;;;;;;10.22;77.56;102591.59;4895773;29;20628;-71
2023/04/18 09:14:44;;;;;;;12.35;5.13;;;;;;;10.36;78.34;102587.59;4895290;29;20044;-71
2023/04/18 09:17:20;;;;;;;16.50;6.80;;;;;;;10.36;76.71;102587.59;4895869;29;20028;-71
2023/04/18 09:19:47;;;;;;;8.50;4.97;;;;;;;10.13;76.04;102580.97;4895641;29;20112;-71
2023/04/18 09:22:13;;;;;;;12.30;6.05;;;;;;;10.12;77.17;102582.81;4895897;29;20063;-72
2023/04/18 09:24:47;;;;;;;9.85;5.03;;;;;;;10.46;76.44;102600.84;4895696;29;20032;-71
2023/04/18 09:27:15;;;;;;;12.73;5.95;;;;;;;10.82;74.16;102577.63;4863603;29;20056;-70
2023/04/18 09:29:40;;;;;;;10.43;5.38;;;;;;;11.15;74.30;102581.34;4895734;29;20039;-72
2023/04/18 09:32:05;;;;;;;12.07;5.47;;;;;;;11.43;72.61;102591.84;4895416;29;20032;-71
2023/04/18 09:34:32;;;;;;;12.13;5.63;;;;;;;11.27;72.35;102573.09;4895371;29;20060;-71
2023/04/18 09:37:11;;;;;;;10.35;5.22;;;;;;;11.34;72.04;102600.81;4878498;29;20124;-71
2023/04/18 09:39:38;;;;;;;9.75;5.22;;;;;;;11.32;72.37;102590.31;4895526;29;20032;-71
2023/04/18 09:42:04;;;;;;;9.18;4.75;;;;;;;11.37;70.38;102589.81;4895398;29;20076;-71
2023/04/18 09:44:30;;;;;;;8.95;5.43;;;;;;;11.40;71.68;102589.50;4895320;29;20029;-71
2023/04/18 09:46:55;;;;;;;14.23;5.13;;;;;;;11.33;72.98;102583.94;4895173;29;20338;-71
2023/04/18 09:49:22;;;;;;;11.43;6.28;;;;;;;11.39;71.90;102577.13;4895252;29;20472;-71
2023/04/18 09:51:51;;;;;;;9.00;5.63;;;;;;;11.43;72.49;102583.84;4895244;29;20027;-71
2023/04/18 09:54:17;;;;;;;9.70;5.03;;;;;;;11.19;73.00;102587.22;4885371;29;20040;-71
2023/04/18 09:56:44;;;;;;;10.13;5.53;;;;;;;10.94;73.37;102588.88;4875879;29;20047;-71
2023/04/18 09:59:10;;;;;;;10.27;5.93;;;;;;;10.93;74.62;102596.06;4894604;29;20032;-71
2023/04/18 10:01:36;;;;;;;10.50;5.40;;;;;;;10.93;74.84;102587.22;4894845;29;20120;-71
2023/04/18 10:04:05;;;;;;;7.72;5.50;;;;;;;11.12;72.69;102597.69;4894218;29;20024;-71
2023/04/18 10:06:33;;;;;;;9.10;4.72;;;;;;;11.23;74.31;102585.91;4894984;29;20492;-71
2023/04/18 10:09:01;;;;;;;7.25;4.72;;;;;;;11.29;71.31;102595.09;4894928;29;20061;-71
2023/04/18 10:11:30;;;;;;;7.28;4.45;;;;;;;11.27;71.20;102594.44;4878383;29;20037;-71
2023/04/18 10:13:57;;;;;;;7.70;4.13;;;;;;;11.06;71.71;102595.66;4894565;29;20028;-71
2023/04/18 10:16:23;;;;;;;6.82;3.85;;;;;;;10.84;70.82;102596.97;4877840;29;20095;-71
2023/04/18 10:18:49;;;;;;;10.35;4.47;;;;;;;10.79;72.84;102591.28;4894646;29;20032;-71
2023/04/18 10:21:15;;;;;;;9.88;4.10;;;;;;;10.78;72.45;102581.59;4894713;29;20037;-71
2023/04/18 10:23:40;;;;;;;9.02;4.40;;;;;;;10.96;73.48;102579.72;4877558;29;20060;-71
2023/04/18 10:26:07;;;;;;;8.85;4.78;;;;;;;11.19;72.46;102584.56;4894754;29;20040;-71
2023/04/18 10:28:55;;;;;;;9.63;5.50;;;;;;;11.30;72.46;102583.44;4877829;29;20127;-71
2023/04/18 10:31:25;;;;;;;9.35;5.38;;;;;;;11.40;71.33;102576.16;4894422;29;20025;-71
2023/04/18 10:33:56;;;;;;;11.77;5.63;;;;;;;11.31;71.72;102585.94;4894367;29;20036;-71
2023/04/18 10:36:21;;;;;;;9.57;5.38;;;;;;;11.18;70.64;102588.19;4894378;29;20028;-71
2023/04/18 10:38:49;;;;;;;10.70;5.03;;;;;;;10.92;72.33;102591.69;4894188;29;20048;-71
2023/04/18 10:41:31;;;;;;;12.18;5.95;;;;;;;10.86;74.85;102583.50;4894377;29;20033;-71
2023/04/18 10:44:09;;;;;;;10.48;4.72;;;;;;;10.83;72.41;102587.31;4894477;29;20031;-71
2023/04/18 10:46:35;;;;;;;8.88;5.30;;;;;;;10.70;72.79;102586.88;4894371;29;20481;-71
2023/04/18 10:49:20;;;;;;;11.93;4.88;;;;;;;10.66;74.39;102577.50;4894170;29;20161;-71
2023/04/18 10:51:48;;;;;;;12.13;5.38;;;;;;;10.69;74.84;102582.53;4882588;29;20040;-71
2023/04/18 10:54:48;;;;;;;10.43;5.82;;;;;;;10.80;74.47;102584.97;4875922;29;20025;-70
2023/04/18 10:57:14;;;;;;;10.55;5.57;;;;;;;10.94;75.12;102583.53;4880923;29;20055;-72
2023/04/18 10:59:47;;;;;;;11.10;5.00;;;;;;;10.97;72.73;102572.56;4878514;29;20021;-71
2023/04/18 11:02:30;;;;;;;11.90;5.53;;;;;;;10.84;74.56;102588.97;4878974;29;20075;-72
2023/04/18 11:04:58;;;;;;;10.07;6.25;;;;;;;10.78;75.59;102586.94;4878030;29;20167;-72
2023/04/18 11:07:33;;;;;;;10.18;5.13;;;;;;;10.71;75.32;102576.03;4879225;29;20023;-71
2023/04/18 11:09:59;;;;;;;10.75;6.78;;;;;;;10.58;76.65;102586.25;4879017;29;20033;-71
2023/04/18 11:12:30;;;;;;;9.55;4.93;;;;;;;10.49;76.35;102572.03;4869683;29;20037;-71
2023/04/18 11:14:55;;;;;;;11.40;5.93;;;;;;;10.48;76.95;102582.88;4882307;29;20060;-71
2023/04/18 11:17:26;;;;;;;13.20;6.32;;;;;;;10.42;77.63;102575.47;4897815;29;20300;-71
2023/04/18 11:20:09;;;;;;;9.63;6.20;;;;;;;10.52;76.76;102586.88;4897625;29;20032;-71